X  SluitMETAR luchtvaart weer gegevens      EBBR Brussels

Temperatuur

11°C Temperatuur

3°C Dauwpunt

58% Vochtigheid



Wind

 5 KM/U

 3 MPH

 1 M/S

 3 KTS



70°
Oost Noord
Oost
Huidig weer

Helder Helder
Luchtdruk 1024.92 (hPa) - 30.27 (in)
Zicht 6.2 (mi) - 10 (km)
Vliegveld
Vliegveld code EBBR

Locatie Brussels 14 (km)

Metar:
EBBR 190250Z 07003KT CAVOK 11/03 Q1025 NOSIG

Tijd: 2019-04-19 04:50